createdAt,value
2022-12-13T00:00:08.603Z,95.71
2022-12-13T00:05:13.200Z,95.43
2022-12-13T00:10:16.670Z,95.87
2022-12-13T00:15:20.105Z,96.20
2022-12-13T00:20:23.145Z,96.54
2022-12-13T00:25:26.139Z,96.39
2022-12-13T00:30:31.755Z,96.91
2022-12-13T00:35:42.026Z,96.80
2022-12-13T00:40:44.953Z,96.93
2022-12-13T00:45:48.202Z,96.69
2022-12-13T00:50:51.085Z,97.10
2022-12-13T00:55:54.370Z,97.24
2022-12-13T01:01:07.710Z,97.60
2022-12-13T01:06:22.058Z,97.55
2022-12-13T01:11:25.574Z,97.71
2022-12-13T01:16:28.801Z,97.71
2022-12-13T01:21:32.036Z,98.04
2022-12-13T01:26:35.150Z,97.87
2022-12-13T01:31:41.832Z,98.40
2022-12-13T01:36:46.827Z,98.55
2022-12-13T01:41:59.646Z,98.80
2022-12-13T01:47:03.190Z,99.27
2022-12-13T01:52:08.881Z,99.36
2022-12-13T01:57:20.951Z,99.61
2022-12-13T02:02:24.210Z,100.00
2022-12-13T02:07:33.009Z,100.00
2022-12-13T02:12:38.248Z,100.00
2022-12-13T02:18:10.428Z,100.00
2022-12-13T02:23:43.468Z,100.00
2022-12-13T02:29:10.842Z,100.00
2022-12-13T02:34:24.459Z,100.00
2022-12-13T02:39:42.643Z,100.00
2022-12-13T02:45:05.956Z,100.00
2022-12-13T02:50:11.775Z,100.00
2022-12-13T02:55:16.964Z,100.00
2022-12-13T03:00:37.287Z,100.00
2022-12-13T03:06:13.991Z,100.00
2022-12-13T03:11:20.158Z,100.00
2022-12-13T03:16:38.045Z,100.00
2022-12-13T03:21:48.784Z,100.00
2022-12-13T03:26:52.396Z,99.81
2022-12-13T03:31:55.400Z,99.95
2022-12-13T03:36:58.416Z,99.68
2022-12-13T03:42:04.149Z,99.95
2022-12-13T03:47:06.997Z,100.00
2022-12-13T03:52:09.873Z,99.96
2022-12-13T03:57:15.835Z,100.00
2022-12-13T04:02:31.024Z,100.00
2022-12-13T04:07:34.841Z,100.00
2022-12-13T04:12:56.024Z,100.00
2022-12-13T04:18:03.680Z,100.00
2022-12-13T04:23:10.086Z,100.00
2022-12-13T04:28:22.563Z,100.00
2022-12-13T04:33:26.147Z,100.00
2022-12-13T04:38:29.190Z,100.00
2022-12-13T04:43:32.368Z,100.00
2022-12-13T04:48:35.557Z,100.00
2022-12-13T04:53:38.510Z,100.00
2022-12-13T04:58:41.437Z,100.00
2022-12-13T05:03:44.414Z,100.00
2022-12-13T05:08:47.411Z,100.00
2022-12-13T05:13:50.711Z,100.00
2022-12-13T05:18:53.607Z,100.00
2022-12-13T05:23:56.509Z,100.00
2022-12-13T05:28:59.982Z,100.00
2022-12-13T05:34:02.884Z,100.00
2022-12-13T05:39:05.744Z,100.00
2022-12-13T05:44:28.867Z,100.00
2022-12-13T05:49:32.351Z,100.00
2022-12-13T05:54:35.423Z,100.00
2022-12-13T05:59:38.381Z,100.00
2022-12-13T06:04:41.218Z,100.00
2022-12-13T06:09:44.175Z,100.00
2022-12-13T06:14:47.232Z,100.00
2022-12-13T06:19:51.397Z,100.00
2022-12-13T06:24:55.150Z,100.00
2022-12-13T06:30:02.413Z,100.00
2022-12-13T06:35:08.972Z,100.00
2022-12-13T06:40:31.518Z,100.00
2022-12-13T06:45:38.241Z,100.00
2022-12-13T06:50:41.243Z,100.00
2022-12-13T06:55:44.230Z,100.00
2022-12-13T07:00:49.049Z,100.00
2022-12-13T07:05:56.748Z,100.00
2022-12-13T07:11:02.029Z,100.00
2022-12-13T07:16:05.503Z,100.00
2022-12-13T07:21:21.993Z,100.00
2022-12-13T07:26:25.952Z,100.00
2022-12-13T07:31:29.480Z,100.00
2022-12-13T07:36:32.537Z,100.00
2022-12-13T07:41:35.404Z,100.00
2022-12-13T07:46:38.237Z,100.00
2022-12-13T07:51:41.116Z,100.00
2022-12-13T07:56:44.262Z,100.00
2022-12-13T08:01:48.921Z,99.74
2022-12-13T08:06:51.915Z,98.72
2022-12-13T08:11:54.760Z,97.71
2022-12-13T08:16:58.041Z,96.37
2022-12-13T08:22:02.035Z,94.19
2022-12-13T08:27:05.740Z,92.65
2022-12-13T08:32:11.917Z,90.78
2022-12-13T08:37:14.878Z,88.85
2022-12-13T08:42:20.351Z,87.33
2022-12-13T08:47:27.051Z,85.01
2022-12-13T08:52:31.930Z,83.77
2022-12-13T08:57:43.362Z,82.79
2022-12-13T09:02:46.809Z,83.41
2022-12-13T09:07:49.780Z,83.21
2022-12-13T09:13:01.098Z,83.73
2022-12-13T09:18:05.675Z,83.27
2022-12-13T09:23:14.264Z,83.12
2022-12-13T09:28:29.262Z,82.37
2022-12-13T09:33:32.592Z,82.34
2022-12-13T09:38:45.294Z,82.66
2022-12-13T09:44:05.187Z,82.53
2022-12-13T09:49:35.879Z,82.98
2022-12-13T09:54:49.118Z,82.66
2022-12-13T09:59:55.901Z,82.96
2022-12-13T10:05:21.963Z,82.72
2022-12-13T10:10:27.899Z,82.55
2022-12-13T10:15:33.224Z,83.06
2022-12-13T10:20:36.987Z,81.40
2022-12-13T10:26:03.235Z,81.57
2022-12-13T10:31:07.813Z,81.30
2022-12-13T10:36:35.743Z,81.35
2022-12-13T10:41:39.990Z,81.20
2022-12-13T10:47:05.825Z,81.22
2022-12-13T10:52:32.359Z,80.14
2022-12-13T10:57:35.347Z,78.80
2022-12-13T11:02:41.748Z,78.19
2022-12-13T11:07:44.760Z,76.93
2022-12-13T11:12:49.510Z,76.10
2022-12-13T11:17:58.441Z,76.11
2022-12-13T11:23:13.185Z,76.67
2022-12-13T11:28:49.118Z,75.65
2022-12-13T11:34:13.528Z,75.11
2022-12-13T11:39:31.126Z,74.94
2022-12-13T11:45:23.406Z,74.26
2022-12-13T11:50:38.328Z,73.93
2022-12-13T11:55:50.098Z,74.04
2022-12-13T12:01:10.625Z,73.71
2022-12-13T12:06:27.355Z,73.50
2022-12-13T12:11:41.823Z,72.68
2022-12-13T12:16:51.820Z,72.24
2022-12-13T12:22:18.755Z,71.45
2022-12-13T12:27:54.441Z,71.52
2022-12-13T12:33:04.460Z,71.83
2022-12-13T12:38:58.730Z,71.09
2022-12-13T12:44:15.312Z,71.27
2022-12-13T12:49:32.785Z,71.42
2022-12-13T12:55:13.349Z,70.63
2022-12-13T13:00:23.348Z,70.64
2022-12-13T13:05:49.408Z,70.86
2022-12-13T13:10:53.425Z,70.40
2022-12-13T13:16:06.064Z,70.66
2022-12-13T13:21:24.226Z,70.44
2022-12-13T13:26:35.975Z,70.23
2022-12-13T13:32:05.262Z,70.46
2022-12-13T13:37:22.831Z,70.88
2022-12-13T13:42:31.012Z,71.48
2022-12-13T13:47:40.267Z,71.80
2022-12-13T13:52:58.011Z,72.48
2022-12-13T13:58:57.795Z,72.64
2022-12-13T14:04:22.785Z,72.75
2022-12-13T14:10:20.281Z,73.07
2022-12-13T14:15:59.269Z,73.92
2022-12-13T14:21:26.907Z,74.60
2022-12-13T14:27:00.139Z,75.43
2022-12-13T14:32:31.371Z,76.02
2022-12-13T14:37:37.807Z,77.10
2022-12-13T14:42:42.406Z,77.99
2022-12-13T14:47:54.445Z,78.46
2022-12-13T14:52:58.021Z,78.76
2022-12-13T14:58:16.558Z,78.77
2022-12-13T15:03:26.658Z,79.43
2022-12-13T15:08:38.118Z,79.90
2022-12-13T15:13:52.679Z,80.47
2022-12-13T15:19:30.120Z,81.15
2022-12-13T15:24:47.056Z,81.77
2022-12-13T15:29:51.410Z,82.33
2022-12-13T15:34:55.675Z,82.60
2022-12-13T15:40:09.053Z,83.10
2022-12-13T15:45:28.262Z,83.78
2022-12-13T15:50:45.197Z,84.11
2022-12-13T15:55:51.743Z,84.57
2022-12-13T16:00:54.945Z,85.06
2022-12-13T16:05:58.180Z,85.62
2022-12-13T16:11:01.490Z,86.08
2022-12-13T16:16:28.588Z,86.63
2022-12-13T16:21:31.575Z,86.46
2022-12-13T16:26:34.957Z,86.48
2022-12-13T16:31:38.008Z,86.90
2022-12-13T16:36:41.126Z,87.24
2022-12-13T16:41:47.907Z,87.76
2022-12-13T16:47:15.287Z,87.83
2022-12-13T16:52:13.814Z,88.13
2022-12-13T16:57:16.760Z,88.66
2022-12-13T17:02:20.374Z,89.22
2022-12-13T17:07:23.761Z,89.64
2022-12-13T17:12:26.697Z,89.29
2022-12-13T17:17:29.466Z,89.89
2022-12-13T17:22:32.774Z,90.45
2022-12-13T17:27:36.296Z,90.49
2022-12-13T17:32:39.212Z,91.34
2022-12-13T17:37:43.496Z,91.28
2022-12-13T17:42:50.957Z,91.68
2022-12-13T17:47:53.919Z,91.87
2022-12-13T17:52:56.843Z,91.99
2022-12-13T17:58:04.281Z,92.12
2022-12-13T18:03:07.560Z,92.32
2022-12-13T18:08:10.615Z,92.73
2022-12-13T18:13:13.460Z,92.97
2022-12-13T18:18:16.861Z,92.77
2022-12-13T18:23:20.037Z,92.83
2022-12-13T18:28:23.051Z,93.02
2022-12-13T18:33:26.349Z,93.24
2022-12-13T18:38:36.232Z,93.23
2022-12-13T18:43:39.903Z,93.51
2022-12-13T18:48:43.273Z,93.97
2022-12-13T18:53:46.307Z,94.05
2022-12-13T18:58:50.484Z,94.31
2022-12-13T19:03:54.991Z,94.47
2022-12-13T19:08:59.213Z,94.45
2022-12-13T19:14:02.268Z,94.61
2022-12-13T19:19:07.073Z,94.98
2022-12-13T19:24:13.857Z,94.84
2022-12-13T19:29:16.969Z,94.67
2022-12-13T19:34:20.177Z,95.31
2022-12-13T19:39:24.072Z,95.14
2022-12-13T19:44:27.088Z,95.20
2022-12-13T19:49:30.242Z,95.68
2022-12-13T19:54:32.935Z,95.90
2022-12-13T19:59:35.893Z,95.67
2022-12-13T20:04:38.844Z,96.33
2022-12-13T20:09:42.002Z,96.22
2022-12-13T20:14:44.891Z,96.42
2022-12-13T20:19:47.859Z,96.36
2022-12-13T20:24:51.071Z,97.05
2022-12-13T20:29:55.711Z,96.82
2022-12-13T20:34:58.701Z,97.01
2022-12-13T20:40:01.655Z,97.32
2022-12-13T20:45:05.627Z,97.48
2022-12-13T20:50:08.953Z,97.53
2022-12-13T20:55:13.815Z,97.63
2022-12-13T21:00:17.831Z,98.03
2022-12-13T21:05:21.819Z,98.33
2022-12-13T21:10:24.750Z,98.06
2022-12-13T21:15:27.824Z,98.05
2022-12-13T21:20:31.235Z,98.32
2022-12-13T21:25:34.100Z,98.64
2022-12-13T21:30:37.186Z,98.77
2022-12-13T21:35:40.310Z,98.52
2022-12-13T21:40:49.623Z,98.76
2022-12-13T21:45:52.757Z,99.18
2022-12-13T21:50:55.847Z,98.97
2022-12-13T21:56:17.663Z,99.29
2022-12-13T22:01:20.700Z,99.63
2022-12-13T22:06:23.534Z,99.46
2022-12-13T22:11:26.412Z,99.62
2022-12-13T22:16:29.751Z,99.69
2022-12-13T22:21:32.769Z,99.75
2022-12-13T22:26:37.500Z,99.66
2022-12-13T22:31:41.262Z,100.00
2022-12-13T22:36:44.736Z,99.97
2022-12-13T22:41:49.756Z,100.00
2022-12-13T22:46:52.661Z,100.00
2022-12-13T22:51:55.614Z,100.00
2022-12-13T22:56:58.392Z,100.00
2022-12-13T23:02:03.004Z,100.00
2022-12-13T23:07:06.840Z,100.00
2022-12-13T23:12:30.055Z,100.00
2022-12-13T23:17:33.004Z,100.00
2022-12-13T23:22:35.991Z,100.00
2022-12-13T23:27:38.921Z,100.00
2022-12-13T23:32:41.751Z,100.00
2022-12-13T23:37:44.459Z,100.00
2022-12-13T23:42:51.704Z,100.00
2022-12-13T23:47:54.548Z,100.00
2022-12-13T23:52:57.237Z,100.00
2022-12-13T23:58:00.081Z,100.00
